createdAt,value
2024-05-09T00:00:05.019Z,0
2024-05-09T00:05:03.114Z,0
2024-05-09T00:10:09.161Z,0
2024-05-09T00:15:02.804Z,0
2024-05-09T00:20:07.012Z,0
2024-05-09T00:25:03.244Z,0
2024-05-09T00:30:07.493Z,0
2024-05-09T00:35:03.105Z,0
2024-05-09T00:40:03.527Z,0
2024-05-09T00:45:03.143Z,0
2024-05-09T00:50:07.579Z,0
2024-05-09T00:55:02.968Z,0
2024-05-09T01:00:02.898Z,0
2024-05-09T01:05:03.465Z,0
2024-05-09T01:10:07.080Z,0
2024-05-09T01:15:02.900Z,0
2024-05-09T01:20:04.208Z,0
2024-05-09T01:25:03.379Z,0
2024-05-09T01:30:09.102Z,0
2024-05-09T01:35:03.193Z,0
2024-05-09T01:40:05.873Z,0
2024-05-09T01:45:02.817Z,0
2024-05-09T01:50:03.767Z,0
2024-05-09T01:55:07.327Z,0
2024-05-09T02:00:04.847Z,0
2024-05-09T02:05:03.331Z,0
2024-05-09T02:10:08.629Z,0
2024-05-09T02:15:02.651Z,0
2024-05-09T02:20:02.961Z,0
2024-05-09T02:25:02.870Z,0
2024-05-09T02:30:06.135Z,0
2024-05-09T02:35:02.588Z,0
2024-05-09T02:40:05.575Z,0
2024-05-09T02:45:02.541Z,0
2024-05-09T02:50:08.474Z,0.91
2024-05-09T02:55:03.589Z,2.38
2024-05-09T03:00:05.961Z,5.43
2024-05-09T03:05:02.587Z,12.79
2024-05-09T03:10:07.447Z,10
2024-05-09T03:15:03.025Z,23.33
2024-05-09T03:20:05.304Z,45
2024-05-09T03:25:02.702Z,81.67
2024-05-09T03:30:07.428Z,130
2024-05-09T03:35:03.051Z,213.33
2024-05-09T03:40:04.201Z,326.67
2024-05-09T03:45:03.178Z,441.67
2024-05-09T03:50:05.910Z,585
2024-05-09T03:55:04.430Z,731.67
2024-05-09T04:00:09.686Z,853.33
2024-05-09T04:05:02.671Z,976.67
2024-05-09T04:10:08.853Z,1153.33
2024-05-09T04:15:03.403Z,1306.67
2024-05-09T04:20:03.514Z,1566.67
2024-05-09T04:25:03.028Z,1680
2024-05-09T04:30:04.855Z,1848.33
2024-05-09T04:35:02.573Z,2880
2024-05-09T04:40:08.915Z,4273.33
2024-05-09T04:45:03.224Z,5466.67
2024-05-09T04:50:03.555Z,6491.67
2024-05-09T04:55:04.285Z,7126.67
2024-05-09T05:00:09.305Z,3465
2024-05-09T05:05:03.080Z,3501.67
2024-05-09T05:10:05.821Z,4426.67
2024-05-09T05:15:02.809Z,16593.33
2024-05-09T05:20:03.285Z,10600
2024-05-09T05:25:02.893Z,9303.33
2024-05-09T05:30:02.784Z,10013.33
2024-05-09T05:35:03.478Z,7593.33
2024-05-09T05:40:04.340Z,9405
2024-05-09T05:45:06.735Z,8458.33
2024-05-09T05:50:07.048Z,10828.33
2024-05-09T05:55:03.656Z,10258.33
2024-05-09T06:00:07.227Z,11465
2024-05-09T06:05:03.218Z,20647.08
2024-05-09T06:10:07.198Z,12311.67
2024-05-09T06:15:02.902Z,27363.33
2024-05-09T06:20:03.657Z,24273.33
2024-05-09T06:25:02.657Z,13523.33
2024-05-09T06:30:05.124Z,13515
2024-05-09T06:35:03.487Z,31276.67
2024-05-09T06:40:04.213Z,34686.67
2024-05-09T06:45:02.644Z,37956.67
2024-05-09T06:50:08.286Z,42016.67
2024-05-09T06:55:03.308Z,39866.67
2024-05-09T07:00:02.481Z,40279.17
2024-05-09T07:05:03.612Z,42610
2024-05-09T07:10:06.247Z,58385.86
2024-05-09T07:15:02.986Z,61958.05
2024-05-09T07:20:03.080Z,43910
2024-05-09T07:25:03.191Z,68725.08
2024-05-09T07:30:07.280Z,77429.14
2024-05-09T07:35:02.714Z,14788.75
2024-05-09T07:40:07.595Z,5236.67
2024-05-09T07:45:52.472Z,63828.59
2024-05-09T07:53:21.431Z,65544.61
2024-05-09T07:55:04.815Z,49736.67
2024-05-09T08:00:04.490Z,39146.67
2024-05-09T08:05:03.537Z,58048.05
2024-05-09T08:10:05.375Z,47101.67
2024-05-09T08:15:02.877Z,45376.67
2024-05-09T08:20:05.910Z,47346.67
2024-05-09T08:25:03.233Z,67756.56
2024-05-09T08:30:03.882Z,66196.88
2024-05-09T08:35:02.771Z,65961.48
2024-05-09T08:40:04.070Z,72518.28
2024-05-09T08:45:02.623Z,68448.36
2024-05-09T08:50:06.758Z,69104.22
2024-05-09T08:55:04.312Z,66726.95
2024-05-09T09:00:07.855Z,69107.81
2024-05-09T09:05:03.538Z,75655.63
2024-05-09T09:10:05.718Z,81479.3
2024-05-09T09:15:02.592Z,80663.52
2024-05-09T09:20:02.815Z,73873.13
2024-05-09T09:25:02.605Z,76505.55
2024-05-09T09:30:04.548Z,76363.59
2024-05-09T09:35:03.257Z,66362.19
2024-05-09T09:40:03.827Z,71937.89
2024-05-09T09:45:06.120Z,77001.48
2024-05-09T09:50:09.365Z,75276.48
2024-05-09T09:55:04.246Z,74938.67
2024-05-09T10:00:09.350Z,76356.41
2024-05-09T10:05:03.187Z,75024.92
2024-05-09T10:10:03.329Z,72489.53
2024-05-09T10:15:03.006Z,75540.63
2024-05-09T10:20:05.429Z,74178.59
2024-05-09T10:25:05.333Z,81067.81
2024-05-09T10:30:11.429Z,75603.52
2024-05-09T10:35:03.340Z,75075.23
2024-05-09T10:40:07.187Z,79567.42
2024-05-09T10:45:03.328Z,80818.05
2024-05-09T10:50:10.312Z,70879.53
2024-05-09T10:55:07.071Z,72971.09
2024-05-09T11:00:02.698Z,75767.03
2024-05-09T11:05:03.378Z,74464.3
2024-05-09T11:10:03.428Z,71393.44
2024-05-09T11:15:03.100Z,67824.84
2024-05-09T11:20:13.686Z,70268.59
2024-05-09T11:25:03.501Z,69544.45
2024-05-09T11:30:05.749Z,74604.45
2024-05-09T11:35:02.750Z,68962.27
2024-05-09T11:40:06.919Z,65745.86
2024-05-09T11:45:03.393Z,67433.13
2024-05-09T11:50:07.965Z,71521.02
2024-05-09T11:55:03.658Z,27527.5
2024-05-09T12:00:07.321Z,69003.59
2024-05-09T12:05:02.989Z,68475.31
2024-05-09T12:10:03.426Z,68883.2
2024-05-09T12:15:02.694Z,66105.23
2024-05-09T12:20:07.039Z,46680
2024-05-09T12:25:02.539Z,60171.95
2024-05-09T12:30:07.150Z,69542.66
2024-05-09T12:35:03.223Z,75851.48
2024-05-09T12:40:06.668Z,74230.7
2024-05-09T12:45:03.373Z,65963.28
2024-05-09T12:50:06.377Z,67007.27
2024-05-09T12:55:04.593Z,57891.72
2024-05-09T13:00:04.342Z,48453.33
2024-05-09T13:05:03.387Z,59555.62
2024-05-09T13:10:02.577Z,63816.02
2024-05-09T13:15:03.258Z,39200
2024-05-09T13:20:05.669Z,33113.33
2024-05-09T13:25:03.144Z,43786.67
2024-05-09T13:30:03.885Z,43005
2024-05-09T13:35:03.278Z,49293.33
2024-05-09T13:40:07.049Z,45596.67
2024-05-09T13:45:02.706Z,8738.33
2024-05-09T13:50:05.316Z,6305
2024-05-09T13:55:03.772Z,18142.92
2024-05-09T14:00:06.768Z,16010.42
2024-05-09T14:05:02.830Z,6075
2024-05-09T14:10:06.498Z,14083.75
2024-05-09T14:15:03.282Z,42966.67
2024-05-09T14:20:03.914Z,37984.17
2024-05-09T14:25:03.421Z,35865
2024-05-09T14:30:07.292Z,31534.17
2024-05-09T14:35:02.759Z,7238.33
2024-05-09T14:40:05.049Z,29300
2024-05-09T14:45:03.188Z,27049.17
2024-05-09T14:50:06.730Z,24451.25
2024-05-09T14:55:04.214Z,11093.33
2024-05-09T15:00:05.300Z,10616.67
2024-05-09T15:05:03.393Z,6381.67
2024-05-09T15:10:04.826Z,10018.33
2024-05-09T15:15:03.048Z,19267.92
2024-05-09T15:20:09.008Z,16714.17
2024-05-09T15:25:03.116Z,3238.33
2024-05-09T15:30:06.780Z,17655.42
2024-05-09T15:35:02.750Z,8320
2024-05-09T15:40:04.328Z,8336.67
2024-05-09T15:45:03.110Z,7191.67
2024-05-09T15:50:02.522Z,5738.33
2024-05-09T15:55:04.238Z,13023.33
2024-05-09T16:00:04.622Z,5820
2024-05-09T16:05:02.645Z,11593.33
2024-05-09T16:10:06.813Z,5678.33
2024-05-09T16:15:02.744Z,5030
2024-05-09T16:20:09.164Z,9616.25
2024-05-09T16:25:02.998Z,9347.92
2024-05-09T16:30:07.123Z,4556.67
2024-05-09T16:35:02.715Z,4666.67
2024-05-09T16:40:04.354Z,4198.33
2024-05-09T16:45:03.129Z,4070
2024-05-09T16:50:03.832Z,3430
2024-05-09T16:55:05.479Z,3380
2024-05-09T17:00:09.303Z,5873.33
2024-05-09T17:05:03.638Z,2793.33
2024-05-09T17:10:05.066Z,2628.33
2024-05-09T17:15:02.682Z,4969.17
2024-05-09T17:20:08.171Z,4539.58
2024-05-09T17:25:03.434Z,4220.42
2024-05-09T17:30:06.227Z,2151.67
2024-05-09T17:35:04.189Z,1753.33
2024-05-09T17:40:17.096Z,1661.67
2024-05-09T17:45:02.589Z,1618.33
2024-05-09T17:50:05.570Z,2989.17
2024-05-09T17:55:04.263Z,1323.33
2024-05-09T18:00:09.031Z,1121.67
2024-05-09T18:05:03.444Z,930
2024-05-09T18:10:03.177Z,756.67
2024-05-09T18:15:03.447Z,610
2024-05-09T18:20:05.088Z,481.67
2024-05-09T18:25:02.550Z,376.67
2024-05-09T18:30:07.312Z,290
2024-05-09T18:35:02.555Z,216.67
2024-05-09T18:40:05.728Z,325
2024-05-09T18:45:02.857Z,115
2024-05-09T18:50:02.952Z,76.67
2024-05-09T18:55:03.876Z,50
2024-05-09T19:00:04.262Z,30
2024-05-09T19:05:02.913Z,15
2024-05-09T19:10:02.754Z,6.67
2024-05-09T19:15:03.296Z,9.28
2024-05-09T19:20:05.800Z,4.53
2024-05-09T19:25:03.095Z,2.04
2024-05-09T19:30:07.299Z,0.91
2024-05-09T19:35:02.876Z,0.23
2024-05-09T19:40:03.001Z,0
2024-05-09T19:45:03.396Z,0
2024-05-09T19:50:03.863Z,0
2024-05-09T19:55:04.241Z,0
2024-05-09T20:00:06.197Z,0
2024-05-09T20:05:03.169Z,0
2024-05-09T20:10:07.994Z,0
2024-05-09T20:15:03.122Z,0
2024-05-09T20:20:06.074Z,0
2024-05-09T20:25:02.874Z,0
2024-05-09T20:30:03.950Z,0
2024-05-09T20:35:02.438Z,0
2024-05-09T20:40:07.980Z,0
2024-05-09T20:45:02.560Z,0
2024-05-09T20:50:07.614Z,0
2024-05-09T20:55:04.730Z,0
2024-05-09T21:00:07.518Z,0
2024-05-09T21:05:03.178Z,0
2024-05-09T21:10:04.686Z,0
2024-05-09T21:15:03.152Z,0
2024-05-09T21:20:07.487Z,0
2024-05-09T21:25:03.028Z,0
2024-05-09T21:30:04.473Z,0
2024-05-09T21:35:03.129Z,0
2024-05-09T21:40:06.918Z,0
2024-05-09T21:45:02.566Z,0
2024-05-09T21:50:07.660Z,0
2024-05-09T21:55:03.214Z,0
2024-05-09T22:00:03.186Z,0
2024-05-09T22:05:02.880Z,0
2024-05-09T22:10:08.026Z,0
2024-05-09T22:15:03.672Z,0
2024-05-09T22:20:11.885Z,0
2024-05-09T22:25:03.029Z,0
2024-05-09T22:30:06.962Z,0
2024-05-09T22:35:02.825Z,0
2024-05-09T22:40:06.912Z,0
2024-05-09T22:45:02.412Z,0
2024-05-09T22:50:03.548Z,0
2024-05-09T22:55:04.682Z,0
2024-05-09T23:00:05.146Z,0
2024-05-09T23:05:03.251Z,0
2024-05-09T23:10:10.925Z,0
2024-05-09T23:15:02.922Z,0
2024-05-09T23:20:14.661Z,0
2024-05-09T23:25:02.656Z,0
2024-05-09T23:30:07.758Z,0
2024-05-09T23:35:03.247Z,0
2024-05-09T23:40:09.341Z,0
2024-05-09T23:45:02.705Z,0
2024-05-09T23:50:11.108Z,0
2024-05-09T23:55:04.091Z,0
